sensor_id;sensor_type;location;lat;lon;timestamp;temperature;humidity
20481;DHT22;10399;50.754;3.366;2023-06-14T00:01:45;23.40;93.50
20481;DHT22;10399;50.754;3.366;2023-06-14T00:04:13;23.40;94.00
20481;DHT22;10399;50.754;3.366;2023-06-14T00:06:44;23.20;94.70
20481;DHT22;10399;50.754;3.366;2023-06-14T00:09:15;23.30;95.50
20481;DHT22;10399;50.754;3.366;2023-06-14T00:11:44;23.30;96.20
20481;DHT22;10399;50.754;3.366;2023-06-14T00:14:11;23.20;97.10
20481;DHT22;10399;50.754;3.366;2023-06-14T00:16:39;23.20;98.00
20481;DHT22;10399;50.754;3.366;2023-06-14T00:19:09;23.10;98.90
20481;DHT22;10399;50.754;3.366;2023-06-14T00:21:37;23.00;99.80
20481;DHT22;10399;50.754;3.366;2023-06-14T00:24:05;23.00;99.90
20481;DHT22;10399;50.754;3.366;2023-06-14T00:26:32;23.10;99.90
20481;DHT22;10399;50.754;3.366;2023-06-14T00:28:59;22.90;99.90
20481;DHT22;10399;50.754;3.366;2023-06-14T00:31:27;22.90;99.90
20481;DHT22;10399;50.754;3.366;2023-06-14T00:33:54;22.90;99.90
20481;DHT22;10399;50.754;3.366;2023-06-14T00:36:20;22.90;99.90
20481;DHT22;10399;50.754;3.366;2023-06-14T00:38:48;22.90;99.90
20481;DHT22;10399;50.754;3.366;2023-06-14T00:41:15;22.90;99.90
20481;DHT22;10399;50.754;3.366;2023-06-14T00:43:42;22.90;99.90
20481;DHT22;10399;50.754;3.366;2023-06-14T00:46:09;22.70;99.90
20481;DHT22;10399;50.754;3.366;2023-06-14T00:48:36;22.80;99.90
20481;DHT22;10399;50.754;3.366;2023-06-14T00:51:04;22.80;99.90
20481;DHT22;10399;50.754;3.366;2023-06-14T00:53:32;22.80;99.90
20481;DHT22;10399;50.754;3.366;2023-06-14T00:56:02;22.90;99.90
20481;DHT22;10399;50.754;3.366;2023-06-14T00:58:30;22.80;99.90
20481;DHT22;10399;50.754;3.366;2023-06-14T01:00:58;22.80;99.90
20481;DHT22;10399;50.754;3.366;2023-06-14T01:03:25;22.60;99.90
20481;DHT22;10399;50.754;3.366;2023-06-14T01:06:02;22.50;99.90
20481;DHT22;10399;50.754;3.366;2023-06-14T01:11:21;22.60;99.90
20481;DHT22;10399;50.754;3.366;2023-06-14T01:13:50;22.60;99.90
20481;DHT22;10399;50.754;3.366;2023-06-14T01:16:19;22.70;99.90
20481;DHT22;10399;50.754;3.366;2023-06-14T01:18:47;22.50;99.90
20481;DHT22;10399;50.754;3.366;2023-06-14T01:21:23;22.60;99.90
20481;DHT22;10399;50.754;3.366;2023-06-14T01:23:52;22.60;99.90
20481;DHT22;10399;50.754;3.366;2023-06-14T01:26:23;22.50;99.90
20481;DHT22;10399;50.754;3.366;2023-06-14T01:28:51;22.50;99.90
20481;DHT22;10399;50.754;3.366;2023-06-14T01:31:20;22.50;99.90
20481;DHT22;10399;50.754;3.366;2023-06-14T01:33:51;22.60;99.90
20481;DHT22;10399;50.754;3.366;2023-06-14T01:36:19;22.40;99.90
20481;DHT22;10399;50.754;3.366;2023-06-14T01:38:48;22.40;99.90
20481;DHT22;10399;50.754;3.366;2023-06-14T01:41:18;22.40;99.90
20481;DHT22;10399;50.754;3.366;2023-06-14T01:43:47;22.40;99.90
20481;DHT22;10399;50.754;3.366;2023-06-14T01:46:16;22.40;99.90
20481;DHT22;10399;50.754;3.366;2023-06-14T01:48:43;22.30;99.90
20481;DHT22;10399;50.754;3.366;2023-06-14T01:51:10;22.40;99.90
20481;DHT22;10399;50.754;3.366;2023-06-14T01:53:37;22.30;99.90
20481;DHT22;10399;50.754;3.366;2023-06-14T01:56:04;22.20;99.90
20481;DHT22;10399;50.754;3.366;2023-06-14T01:58:32;22.20;99.90
20481;DHT22;10399;50.754;3.366;2023-06-14T02:00:59;22.10;99.90
20481;DHT22;10399;50.754;3.366;2023-06-14T02:03:28;22.10;99.90
20481;DHT22;10399;50.754;3.366;2023-06-14T02:05:55;22.10;99.90
20481;DHT22;10399;50.754;3.366;2023-06-14T02:08:23;22.10;99.90
20481;DHT22;10399;50.754;3.366;2023-06-14T02:10:51;22.00;99.90
20481;DHT22;10399;50.754;3.366;2023-06-14T02:13:18;22.10;99.90
20481;DHT22;10399;50.754;3.366;2023-06-14T02:15:45;22.00;99.90
20481;DHT22;10399;50.754;3.366;2023-06-14T02:18:12;22.00;99.90
20481;DHT22;10399;50.754;3.366;2023-06-14T02:20:39;22.00;99.90
20481;DHT22;10399;50.754;3.366;2023-06-14T02:23:06;21.80;99.90
20481;DHT22;10399;50.754;3.366;2023-06-14T02:25:35;21.80;99.90
20481;DHT22;10399;50.754;3.366;2023-06-14T02:28:02;21.80;99.90
20481;DHT22;10399;50.754;3.366;2023-06-14T02:30:29;21.80;99.90
20481;DHT22;10399;50.754;3.366;2023-06-14T02:32:57;21.70;99.90
20481;DHT22;10399;50.754;3.366;2023-06-14T02:35:26;21.60;99.90
20481;DHT22;10399;50.754;3.366;2023-06-14T02:37:54;21.60;99.90
20481;DHT22;10399;50.754;3.366;2023-06-14T02:40:21;21.70;99.90
20481;DHT22;10399;50.754;3.366;2023-06-14T02:42:48;21.70;99.90
20481;DHT22;10399;50.754;3.366;2023-06-14T02:45:15;21.70;99.90
20481;DHT22;10399;50.754;3.366;2023-06-14T02:47:42;21.70;99.90
20481;DHT22;10399;50.754;3.366;2023-06-14T02:50:10;21.70;99.90
20481;DHT22;10399;50.754;3.366;2023-06-14T02:52:37;21.60;99.90
20481;DHT22;10399;50.754;3.366;2023-06-14T02:55:05;21.60;99.90
20481;DHT22;10399;50.754;3.366;2023-06-14T02:57:32;21.60;99.90
20481;DHT22;10399;50.754;3.366;2023-06-14T02:59:59;21.50;99.90
20481;DHT22;10399;50.754;3.366;2023-06-14T03:02:27;21.50;99.90
20481;DHT22;10399;50.754;3.366;2023-06-14T03:04:54;21.40;99.90
20481;DHT22;10399;50.754;3.366;2023-06-14T03:07:22;21.30;99.90
20481;DHT22;10399;50.754;3.366;2023-06-14T03:09:49;21.30;99.90
20481;DHT22;10399;50.754;3.366;2023-06-14T03:12:17;21.30;99.90
20481;DHT22;10399;50.754;3.366;2023-06-14T03:14:44;21.40;99.90
20481;DHT22;10399;50.754;3.366;2023-06-14T03:17:12;21.40;99.90
20481;DHT22;10399;50.754;3.366;2023-06-14T03:19:39;21.50;99.90
20481;DHT22;10399;50.754;3.366;2023-06-14T03:22:08;21.70;99.90
20481;DHT22;10399;50.754;3.366;2023-06-14T03:24:35;21.60;99.90
20481;DHT22;10399;50.754;3.366;2023-06-14T03:27:04;21.60;99.90
20481;DHT22;10399;50.754;3.366;2023-06-14T03:29:31;21.60;99.90
20481;DHT22;10399;50.754;3.366;2023-06-14T03:32:02;21.50;99.90
20481;DHT22;10399;50.754;3.366;2023-06-14T03:34:30;21.40;99.90
20481;DHT22;10399;50.754;3.366;2023-06-14T03:36:57;21.50;99.90
20481;DHT22;10399;50.754;3.366;2023-06-14T03:39:24;21.80;99.90
20481;DHT22;10399;50.754;3.366;2023-06-14T03:41:51;21.70;99.90
20481;DHT22;10399;50.754;3.366;2023-06-14T03:44:19;21.70;99.90
20481;DHT22;10399;50.754;3.366;2023-06-14T03:46:46;21.70;99.90
20481;DHT22;10399;50.754;3.366;2023-06-14T03:49:13;21.90;99.90
20481;DHT22;10399;50.754;3.366;2023-06-14T03:51:43;21.80;99.90
20481;DHT22;10399;50.754;3.366;2023-06-14T03:54:10;21.80;99.90
20481;DHT22;10399;50.754;3.366;2023-06-14T03:56:58;21.70;99.90
20481;DHT22;10399;50.754;3.366;2023-06-14T03:59:26;21.70;99.90
20481;DHT22;10399;50.754;3.366;2023-06-14T04:01:54;21.60;99.90
20481;DHT22;10399;50.754;3.366;2023-06-14T04:04:21;21.50;99.90
20481;DHT22;10399;50.754;3.366;2023-06-14T04:06:49;21.60;99.90
20481;DHT22;10399;50.754;3.366;2023-06-14T04:09:17;21.50;99.90
20481;DHT22;10399;50.754;3.366;2023-06-14T04:11:45;21.30;99.90
20481;DHT22;10399;50.754;3.366;2023-06-14T04:14:12;21.30;99.90
20481;DHT22;10399;50.754;3.366;2023-06-14T04:16:39;21.30;99.90
20481;DHT22;10399;50.754;3.366;2023-06-14T04:19:06;21.30;99.90
20481;DHT22;10399;50.754;3.366;2023-06-14T04:21:33;21.30;99.90
20481;DHT22;10399;50.754;3.366;2023-06-14T04:24:02;21.30;99.90
20481;DHT22;10399;50.754;3.366;2023-06-14T04:26:29;21.20;99.90
20481;DHT22;10399;50.754;3.366;2023-06-14T04:28:56;21.10;99.90
20481;DHT22;10399;50.754;3.366;2023-06-14T04:31:29;21.20;99.90
20481;DHT22;10399;50.754;3.366;2023-06-14T04:34:00;21.20;99.90
20481;DHT22;10399;50.754;3.366;2023-06-14T04:36:28;21.20;99.90
20481;DHT22;10399;50.754;3.366;2023-06-14T04:38:55;21.30;99.90
20481;DHT22;10399;50.754;3.366;2023-06-14T04:41:22;21.40;99.90
20481;DHT22;10399;50.754;3.366;2023-06-14T04:43:49;21.50;99.90
20481;DHT22;10399;50.754;3.366;2023-06-14T04:46:16;21.60;99.90
20481;DHT22;10399;50.754;3.366;2023-06-14T04:48:44;21.60;99.90
20481;DHT22;10399;50.754;3.366;2023-06-14T04:51:12;21.80;99.90
20481;DHT22;10399;50.754;3.366;2023-06-14T04:53:40;21.90;99.90
20481;DHT22;10399;50.754;3.366;2023-06-14T04:56:07;22.00;99.90
20481;DHT22;10399;50.754;3.366;2023-06-14T04:58:34;22.00;99.90
20481;DHT22;10399;50.754;3.366;2023-06-14T05:01:01;21.80;99.90
20481;DHT22;10399;50.754;3.366;2023-06-14T05:03:31;21.80;99.90
20481;DHT22;10399;50.754;3.366;2023-06-14T05:05:58;21.60;99.90
20481;DHT22;10399;50.754;3.366;2023-06-14T05:08:25;21.70;99.90
20481;DHT22;10399;50.754;3.366;2023-06-14T05:10:52;21.80;99.90
20481;DHT22;10399;50.754;3.366;2023-06-14T05:13:19;22.00;99.90
20481;DHT22;10399;50.754;3.366;2023-06-14T05:15:48;21.90;99.90
20481;DHT22;10399;50.754;3.366;2023-06-14T05:18:16;22.00;99.90
20481;DHT22;10399;50.754;3.366;2023-06-14T05:20:43;22.00;99.90
20481;DHT22;10399;50.754;3.366;2023-06-14T05:23:11;21.90;99.90
20481;DHT22;10399;50.754;3.366;2023-06-14T05:25:45;22.20;99.90
20481;DHT22;10399;50.754;3.366;2023-06-14T05:28:13;22.10;99.90
20481;DHT22;10399;50.754;3.366;2023-06-14T05:30:40;22.10;99.90
20481;DHT22;10399;50.754;3.366;2023-06-14T05:33:08;22.10;99.90
20481;DHT22;10399;50.754;3.366;2023-06-14T05:35:35;22.30;99.90
20481;DHT22;10399;50.754;3.366;2023-06-14T05:38:02;22.50;99.90
20481;DHT22;10399;50.754;3.366;2023-06-14T05:40:29;22.50;99.90
20481;DHT22;10399;50.754;3.366;2023-06-14T05:42:56;22.50;99.90
20481;DHT22;10399;50.754;3.366;2023-06-14T05:45:23;22.50;99.90
20481;DHT22;10399;50.754;3.366;2023-06-14T05:47:50;22.50;99.90
20481;DHT22;10399;50.754;3.366;2023-06-14T05:50:18;22.60;99.90
20481;DHT22;10399;50.754;3.366;2023-06-14T05:52:45;22.70;99.90
20481;DHT22;10399;50.754;3.366;2023-06-14T05:55:12;22.70;99.90
20481;DHT22;10399;50.754;3.366;2023-06-14T05:57:40;22.90;99.90
20481;DHT22;10399;50.754;3.366;2023-06-14T06:00:09;23.00;99.90
20481;DHT22;10399;50.754;3.366;2023-06-14T06:02:44;23.10;99.90
20481;DHT22;10399;50.754;3.366;2023-06-14T06:05:13;23.10;99.90
20481;DHT22;10399;50.754;3.366;2023-06-14T06:07:41;23.20;99.90
20481;DHT22;10399;50.754;3.366;2023-06-14T06:10:08;23.40;99.90
20481;DHT22;10399;50.754;3.366;2023-06-14T06:12:36;23.40;99.90
20481;DHT22;10399;50.754;3.366;2023-06-14T06:15:03;23.40;99.90
20481;DHT22;10399;50.754;3.366;2023-06-14T06:17:31;23.30;99.90
20481;DHT22;10399;50.754;3.366;2023-06-14T06:20:16;23.50;99.90
20481;DHT22;10399;50.754;3.366;2023-06-14T06:22:44;23.50;99.90
20481;DHT22;10399;50.754;3.366;2023-06-14T06:25:11;23.50;99.90
20481;DHT22;10399;50.754;3.366;2023-06-14T06:27:38;23.40;99.90
20481;DHT22;10399;50.754;3.366;2023-06-14T06:30:07;23.40;99.90
20481;DHT22;10399;50.754;3.366;2023-06-14T06:32:34;23.60;99.90
20481;DHT22;10399;50.754;3.366;2023-06-14T06:35:01;23.80;99.90
20481;DHT22;10399;50.754;3.366;2023-06-14T06:37:28;23.80;99.90
20481;DHT22;10399;50.754;3.366;2023-06-14T06:39:55;23.90;99.90
20481;DHT22;10399;50.754;3.366;2023-06-14T06:42:22;24.00;99.90
20481;DHT22;10399;50.754;3.366;2023-06-14T06:44:49;24.10;99.90
20481;DHT22;10399;50.754;3.366;2023-06-14T06:47:16;24.20;99.90
20481;DHT22;10399;50.754;3.366;2023-06-14T06:49:43;24.30;99.90
20481;DHT22;10399;50.754;3.366;2023-06-14T06:52:10;24.30;99.90
20481;DHT22;10399;50.754;3.366;2023-06-14T06:54:39;24.50;99.90
20481;DHT22;10399;50.754;3.366;2023-06-14T06:57:06;24.60;99.90
20481;DHT22;10399;50.754;3.366;2023-06-14T06:59:35;24.60;99.90
20481;DHT22;10399;50.754;3.366;2023-06-14T07:02:02;24.70;99.90
20481;DHT22;10399;50.754;3.366;2023-06-14T07:04:31;24.60;99.90
20481;DHT22;10399;50.754;3.366;2023-06-14T07:06:58;24.70;99.90
20481;DHT22;10399;50.754;3.366;2023-06-14T07:09:26;24.90;99.90
20481;DHT22;10399;50.754;3.366;2023-06-14T07:11:53;24.80;99.90
20481;DHT22;10399;50.754;3.366;2023-06-14T07:14:20;24.90;99.90
20481;DHT22;10399;50.754;3.366;2023-06-14T07:16:49;25.10;99.90
20481;DHT22;10399;50.754;3.366;2023-06-14T07:19:16;25.00;99.90
20481;DHT22;10399;50.754;3.366;2023-06-14T07:21:43;25.20;99.90
20481;DHT22;10399;50.754;3.366;2023-06-14T07:24:11;25.40;99.90
20481;DHT22;10399;50.754;3.366;2023-06-14T07:26:38;25.60;99.90
20481;DHT22;10399;50.754;3.366;2023-06-14T07:29:05;25.70;99.90
20481;DHT22;10399;50.754;3.366;2023-06-14T07:31:33;25.80;99.90
20481;DHT22;10399;50.754;3.366;2023-06-14T07:34:00;25.60;99.90
20481;DHT22;10399;50.754;3.366;2023-06-14T07:36:27;25.70;99.90
20481;DHT22;10399;50.754;3.366;2023-06-14T07:38:54;26.00;99.90
20481;DHT22;10399;50.754;3.366;2023-06-14T07:41:21;26.00;99.90
20481;DHT22;10399;50.754;3.366;2023-06-14T07:43:48;26.10;99.90
20481;DHT22;10399;50.754;3.366;2023-06-14T07:46:15;26.20;99.90
20481;DHT22;10399;50.754;3.366;2023-06-14T07:48:42;26.30;99.90
20481;DHT22;10399;50.754;3.366;2023-06-14T07:51:10;26.00;99.90
20481;DHT22;10399;50.754;3.366;2023-06-14T07:53:37;26.20;99.90
20481;DHT22;10399;50.754;3.366;2023-06-14T07:56:04;26.40;99.90
20481;DHT22;10399;50.754;3.366;2023-06-14T07:58:31;26.40;99.90
20481;DHT22;10399;50.754;3.366;2023-06-14T08:00:58;26.60;99.90
20481;DHT22;10399;50.754;3.366;2023-06-14T08:03:26;26.70;99.90
20481;DHT22;10399;50.754;3.366;2023-06-14T08:05:54;26.90;99.90
20481;DHT22;10399;50.754;3.366;2023-06-14T08:08:21;27.00;99.90
20481;DHT22;10399;50.754;3.366;2023-06-14T08:10:48;27.00;99.90
20481;DHT22;10399;50.754;3.366;2023-06-14T08:13:15;27.30;99.90
20481;DHT22;10399;50.754;3.366;2023-06-14T08:15:42;27.50;99.90
20481;DHT22;10399;50.754;3.366;2023-06-14T08:18:09;27.50;99.90
20481;DHT22;10399;50.754;3.366;2023-06-14T08:20:37;27.70;99.90
20481;DHT22;10399;50.754;3.366;2023-06-14T08:23:04;27.80;99.90
20481;DHT22;10399;50.754;3.366;2023-06-14T08:25:31;27.80;99.90
20481;DHT22;10399;50.754;3.366;2023-06-14T08:27:59;28.10;99.90
20481;DHT22;10399;50.754;3.366;2023-06-14T08:30:26;28.00;99.90
20481;DHT22;10399;50.754;3.366;2023-06-14T08:32:54;28.30;99.90
20481;DHT22;10399;50.754;3.366;2023-06-14T08:35:40;28.30;99.90
20481;DHT22;10399;50.754;3.366;2023-06-14T08:38:07;28.50;99.90
20481;DHT22;10399;50.754;3.366;2023-06-14T08:40:37;28.60;99.70
20481;DHT22;10399;50.754;3.366;2023-06-14T08:43:04;28.80;98.70
20481;DHT22;10399;50.754;3.366;2023-06-14T08:45:32;28.90;98.20
20481;DHT22;10399;50.754;3.366;2023-06-14T08:48:00;29.10;98.50
20481;DHT22;10399;50.754;3.366;2023-06-14T08:50:28;29.20;97.00
20481;DHT22;10399;50.754;3.366;2023-06-14T08:53:01;29.60;95.90
20481;DHT22;10399;50.754;3.366;2023-06-14T08:55:31;29.90;95.30
20481;DHT22;10399;50.754;3.366;2023-06-14T08:58:04;30.00;94.80
20481;DHT22;10399;50.754;3.366;2023-06-14T09:00:32;30.30;93.60
20481;DHT22;10399;50.754;3.366;2023-06-14T09:03:02;30.50;92.70
20481;DHT22;10399;50.754;3.366;2023-06-14T09:05:30;30.70;91.80
20481;DHT22;10399;50.754;3.366;2023-06-14T09:07:57;30.80;91.70
20481;DHT22;10399;50.754;3.366;2023-06-14T09:10:32;30.70;90.60
20481;DHT22;10399;50.754;3.366;2023-06-14T09:13:05;30.90;90.90
20481;DHT22;10399;50.754;3.366;2023-06-14T09:15:32;31.30;90.20
20481;DHT22;10399;50.754;3.366;2023-06-14T09:18:03;31.50;88.80
20481;DHT22;10399;50.754;3.366;2023-06-14T09:20:31;31.80;88.90
20481;DHT22;10399;50.754;3.366;2023-06-14T09:22:59;31.90;87.30
20481;DHT22;10399;50.754;3.366;2023-06-14T09:25:27;32.10;87.30
20481;DHT22;10399;50.754;3.366;2023-06-14T09:28:09;32.40;83.10
20481;DHT22;10399;50.754;3.366;2023-06-14T09:30:39;32.50;80.60
20481;DHT22;10399;50.754;3.366;2023-06-14T09:33:07;32.30;79.30
20481;DHT22;10399;50.754;3.366;2023-06-14T09:35:34;32.50;82.50
20481;DHT22;10399;50.754;3.366;2023-06-14T09:38:02;32.90;80.60
20481;DHT22;10399;50.754;3.366;2023-06-14T09:40:34;33.20;80.60
20481;DHT22;10399;50.754;3.366;2023-06-14T09:43:06;33.20;79.90
20481;DHT22;10399;50.754;3.366;2023-06-14T09:45:35;33.40;81.10
20481;DHT22;10399;50.754;3.366;2023-06-14T09:48:03;33.70;79.50
20481;DHT22;10399;50.754;3.366;2023-06-14T09:50:34;33.60;78.70
20481;DHT22;10399;50.754;3.366;2023-06-14T09:53:11;33.50;78.70
20481;DHT22;10399;50.754;3.366;2023-06-14T09:55:41;33.30;77.30
20481;DHT22;10399;50.754;3.366;2023-06-14T09:58:10;33.00;74.50
20481;DHT22;10399;50.754;3.366;2023-06-14T10:00:39;33.10;76.40
20481;DHT22;10399;50.754;3.366;2023-06-14T10:03:20;33.40;75.40
20481;DHT22;10399;50.754;3.366;2023-06-14T10:05:50;34.00;74.90
20481;DHT22;10399;50.754;3.366;2023-06-14T10:08:19;33.90;75.00
20481;DHT22;10399;50.754;3.366;2023-06-14T10:10:49;33.90;73.30
20481;DHT22;10399;50.754;3.366;2023-06-14T10:13:18;33.90;73.50
20481;DHT22;10399;50.754;3.366;2023-06-14T10:15:57;33.80;70.40
20481;DHT22;10399;50.754;3.366;2023-06-14T10:24:13;34.70;71.70
20481;DHT22;10399;50.754;3.366;2023-06-14T10:26:53;34.70;70.80
20481;DHT22;10399;50.754;3.366;2023-06-14T10:29:27;34.50;68.90
20481;DHT22;10399;50.754;3.366;2023-06-14T10:32:00;33.80;68.10
20481;DHT22;10399;50.754;3.366;2023-06-14T10:34:29;33.70;70.90
20481;DHT22;10399;50.754;3.366;2023-06-14T10:37:11;34.30;70.90
20481;DHT22;10399;50.754;3.366;2023-06-14T10:39:43;34.70;68.80
20481;DHT22;10399;50.754;3.366;2023-06-14T10:42:13;35.10;71.40
20481;DHT22;10399;50.754;3.366;2023-06-14T10:47:10;35.00;69.80
20481;DHT22;10399;50.754;3.366;2023-06-14T10:52:13;34.80;67.10
20481;DHT22;10399;50.754;3.366;2023-06-14T10:55:05;34.80;66.30
20481;DHT22;10399;50.754;3.366;2023-06-14T10:57:33;34.50;66.60
20481;DHT22;10399;50.754;3.366;2023-06-14T11:00:17;34.80;65.40
20481;DHT22;10399;50.754;3.366;2023-06-14T11:03:16;35.40;67.50
20481;DHT22;10399;50.754;3.366;2023-06-14T11:05:51;36.10;66.70
20481;DHT22;10399;50.754;3.366;2023-06-14T11:11:15;36.30;64.60
20481;DHT22;10399;50.754;3.366;2023-06-14T11:13:45;36.60;64.60
20481;DHT22;10399;50.754;3.366;2023-06-14T11:16:17;36.50;64.00
20481;DHT22;10399;50.754;3.366;2023-06-14T11:18:46;36.30;63.60
20481;DHT22;10399;50.754;3.366;2023-06-14T11:21:17;36.70;62.80
20481;DHT22;10399;50.754;3.366;2023-06-14T11:23:51;36.90;62.90
20481;DHT22;10399;50.754;3.366;2023-06-14T11:26:29;36.60;60.50
20481;DHT22;10399;50.754;3.366;2023-06-14T11:29:00;36.50;61.70
20481;DHT22;10399;50.754;3.366;2023-06-14T11:31:28;36.50;61.80
20481;DHT22;10399;50.754;3.366;2023-06-14T11:34:00;36.00;61.50
20481;DHT22;10399;50.754;3.366;2023-06-14T11:36:31;36.30;62.30
20481;DHT22;10399;50.754;3.366;2023-06-14T11:39:02;36.60;63.00
20481;DHT22;10399;50.754;3.366;2023-06-14T11:41:38;37.00;62.40
20481;DHT22;10399;50.754;3.366;2023-06-14T11:44:06;37.40;62.20
20481;DHT22;10399;50.754;3.366;2023-06-14T11:46:34;37.80;62.10
20481;DHT22;10399;50.754;3.366;2023-06-14T11:49:02;37.80;62.20
20481;DHT22;10399;50.754;3.366;2023-06-14T11:51:33;38.00;60.30
20481;DHT22;10399;50.754;3.366;2023-06-14T11:54:02;37.50;60.40
20481;DHT22;10399;50.754;3.366;2023-06-14T11:56:31;37.90;60.70
20481;DHT22;10399;50.754;3.366;2023-06-14T11:58:59;38.10;61.80
20481;DHT22;10399;50.754;3.366;2023-06-14T12:01:27;37.40;57.50
20481;DHT22;10399;50.754;3.366;2023-06-14T12:03:57;37.20;59.20
20481;DHT22;10399;50.754;3.366;2023-06-14T12:06:28;37.70;57.80
20481;DHT22;10399;50.754;3.366;2023-06-14T12:08:58;37.70;57.90
20481;DHT22;10399;50.754;3.366;2023-06-14T12:11:32;37.50;59.30
20481;DHT22;10399;50.754;3.366;2023-06-14T12:14:00;37.70;59.10
20481;DHT22;10399;50.754;3.366;2023-06-14T12:16:33;38.10;58.10
20481;DHT22;10399;50.754;3.366;2023-06-14T12:19:14;38.60;58.40
20481;DHT22;10399;50.754;3.366;2023-06-14T12:21:45;38.20;58.10
20481;DHT22;10399;50.754;3.366;2023-06-14T12:24:14;37.80;59.60
20481;DHT22;10399;50.754;3.366;2023-06-14T12:26:42;38.00;60.20
20481;DHT22;10399;50.754;3.366;2023-06-14T12:29:09;38.20;60.50
20481;DHT22;10399;50.754;3.366;2023-06-14T12:31:37;37.70;59.50
20481;DHT22;10399;50.754;3.366;2023-06-14T12:34:04;37.30;60.10
20481;DHT22;10399;50.754;3.366;2023-06-14T12:36:31;36.80;60.80
20481;DHT22;10399;50.754;3.366;2023-06-14T12:38:59;36.60;61.20
20481;DHT22;10399;50.754;3.366;2023-06-14T12:41:26;36.60;60.80
20481;DHT22;10399;50.754;3.366;2023-06-14T12:43:53;37.30;60.80
20481;DHT22;10399;50.754;3.366;2023-06-14T12:46:21;37.70;59.80
20481;DHT22;10399;50.754;3.366;2023-06-14T12:48:48;37.30;57.70
20481;DHT22;10399;50.754;3.366;2023-06-14T12:51:16;37.40;59.20
20481;DHT22;10399;50.754;3.366;2023-06-14T12:53:43;37.00;59.50
20481;DHT22;10399;50.754;3.366;2023-06-14T12:56:11;37.10;60.40
20481;DHT22;10399;50.754;3.366;2023-06-14T12:58:38;37.40;60.70
20481;DHT22;10399;50.754;3.366;2023-06-14T13:01:05;37.70;60.70
20481;DHT22;10399;50.754;3.366;2023-06-14T13:03:32;38.20;60.50
20481;DHT22;10399;50.754;3.366;2023-06-14T13:06:01;38.50;59.60
20481;DHT22;10399;50.754;3.366;2023-06-14T13:08:28;38.40;60.20
20481;DHT22;10399;50.754;3.366;2023-06-14T13:10:56;38.50;60.00
20481;DHT22;10399;50.754;3.366;2023-06-14T13:13:28;38.30;58.80
20481;DHT22;10399;50.754;3.366;2023-06-14T13:15:55;39.00;59.10
20481;DHT22;10399;50.754;3.366;2023-06-14T13:18:22;38.70;57.70
20481;DHT22;10399;50.754;3.366;2023-06-14T13:20:50;38.70;57.70
20481;DHT22;10399;50.754;3.366;2023-06-14T13:23:17;38.00;57.70
20481;DHT22;10399;50.754;3.366;2023-06-14T13:25:44;37.20;58.10
20481;DHT22;10399;50.754;3.366;2023-06-14T13:28:11;37.40;59.80
20481;DHT22;10399;50.754;3.366;2023-06-14T13:30:38;37.90;59.80
20481;DHT22;10399;50.754;3.366;2023-06-14T13:33:06;38.40;59.40
20481;DHT22;10399;50.754;3.366;2023-06-14T13:35:33;39.00;58.50
20481;DHT22;10399;50.754;3.366;2023-06-14T13:38:00;39.00;57.20
20481;DHT22;10399;50.754;3.366;2023-06-14T13:40:27;39.00;58.10
20481;DHT22;10399;50.754;3.366;2023-06-14T13:42:54;38.70;58.00
20481;DHT22;10399;50.754;3.366;2023-06-14T13:45:21;38.90;58.70
20481;DHT22;10399;50.754;3.366;2023-06-14T13:47:48;39.20;58.10
20481;DHT22;10399;50.754;3.366;2023-06-14T13:50:16;39.00;58.40
20481;DHT22;10399;50.754;3.366;2023-06-14T13:52:43;39.10;58.70
20481;DHT22;10399;50.754;3.366;2023-06-14T13:55:11;39.30;58.40
20481;DHT22;10399;50.754;3.366;2023-06-14T13:57:38;38.80;57.00
20481;DHT22;10399;50.754;3.366;2023-06-14T14:00:06;38.70;57.30
20481;DHT22;10399;50.754;3.366;2023-06-14T14:02:35;39.10;58.60
20481;DHT22;10399;50.754;3.366;2023-06-14T14:05:02;39.30;57.20
20481;DHT22;10399;50.754;3.366;2023-06-14T14:07:30;39.50;56.10
20481;DHT22;10399;50.754;3.366;2023-06-14T14:09:57;39.40;57.40
20481;DHT22;10399;50.754;3.366;2023-06-14T14:12:24;39.20;56.40
20481;DHT22;10399;50.754;3.366;2023-06-14T14:14:52;38.70;55.90
20481;DHT22;10399;50.754;3.366;2023-06-14T14:17:19;39.00;58.10
20481;DHT22;10399;50.754;3.366;2023-06-14T14:19:46;38.70;56.30
20481;DHT22;10399;50.754;3.366;2023-06-14T14:22:14;38.40;56.30
20481;DHT22;10399;50.754;3.366;2023-06-14T14:24:41;38.00;56.70
20481;DHT22;10399;50.754;3.366;2023-06-14T14:27:08;38.10;56.90
20481;DHT22;10399;50.754;3.366;2023-06-14T14:29:35;38.00;56.00
20481;DHT22;10399;50.754;3.366;2023-06-14T14:32:02;37.80;57.10
20481;DHT22;10399;50.754;3.366;2023-06-14T14:34:29;38.20;57.30
20481;DHT22;10399;50.754;3.366;2023-06-14T14:36:57;37.70;56.50
20481;DHT22;10399;50.754;3.366;2023-06-14T14:39:24;37.70;57.30
20481;DHT22;10399;50.754;3.366;2023-06-14T14:41:51;37.20;56.20
20481;DHT22;10399;50.754;3.366;2023-06-14T14:44:18;37.40;57.90
20481;DHT22;10399;50.754;3.366;2023-06-14T14:46:46;37.60;57.20
20481;DHT22;10399;50.754;3.366;2023-06-14T14:49:13;37.60;57.10
20481;DHT22;10399;50.754;3.366;2023-06-14T14:51:40;37.60;57.50
20481;DHT22;10399;50.754;3.366;2023-06-14T14:54:08;37.50;57.40
20481;DHT22;10399;50.754;3.366;2023-06-14T14:56:35;37.20;57.80
20481;DHT22;10399;50.754;3.366;2023-06-14T14:59:02;37.20;58.20
20481;DHT22;10399;50.754;3.366;2023-06-14T15:01:30;36.90;57.20
20481;DHT22;10399;50.754;3.366;2023-06-14T15:03:57;36.90;57.00
20481;DHT22;10399;50.754;3.366;2023-06-14T15:06:26;36.70;56.30
20481;DHT22;10399;50.754;3.366;2023-06-14T15:08:53;36.20;56.80
20481;DHT22;10399;50.754;3.366;2023-06-14T15:11:20;36.10;58.50
20481;DHT22;10399;50.754;3.366;2023-06-14T15:13:47;36.70;58.30
20481;DHT22;10399;50.754;3.366;2023-06-14T15:16:16;36.70;57.60
20481;DHT22;10399;50.754;3.366;2023-06-14T15:18:43;37.00;58.40
20481;DHT22;10399;50.754;3.366;2023-06-14T15:21:09;37.20;58.00
20481;DHT22;10399;50.754;3.366;2023-06-14T15:23:37;37.40;57.50
20481;DHT22;10399;50.754;3.366;2023-06-14T15:26:04;37.30;56.60
20481;DHT22;10399;50.754;3.366;2023-06-14T15:28:31;37.30;57.30
20481;DHT22;10399;50.754;3.366;2023-06-14T15:30:59;37.50;56.50
20481;DHT22;10399;50.754;3.366;2023-06-14T15:33:27;37.50;56.90
20481;DHT22;10399;50.754;3.366;2023-06-14T15:35:54;37.60;57.00
20481;DHT22;10399;50.754;3.366;2023-06-14T15:38:22;37.50;56.90
20481;DHT22;10399;50.754;3.366;2023-06-14T15:40:49;37.50;56.80
20481;DHT22;10399;50.754;3.366;2023-06-14T15:43:18;37.70;57.00
20481;DHT22;10399;50.754;3.366;2023-06-14T15:45:46;37.80;56.70
20481;DHT22;10399;50.754;3.366;2023-06-14T15:48:13;37.60;56.70
20481;DHT22;10399;50.754;3.366;2023-06-14T15:50:41;37.40;57.20
20481;DHT22;10399;50.754;3.366;2023-06-14T15:53:08;37.40;56.70
20481;DHT22;10399;50.754;3.366;2023-06-14T15:55:35;37.40;57.70